Northwest Arkansas Regional Airport Fayetteville,Springdale, US
ICAO: KXNA
IATA: XNA
Category: Medium
Scheduled Services: No

Elevation: 1287 ft
TransAlt. 18000 ft.

Airport Communications:
RAZORBACK APP/DEP:121
ASOS:119.425
CTAF:127.1
GND:121.9
JONESBORO RDO:122.55
TWR:127.1
UNICOM:122.95

KXNA Zoom In..

If you have problems with the map follow the link
https://www.worldairports.se/pages/airport.php?
ICAO=KXNA

Runways:

(A) RW 16 length 8800 ft width 150 ft
ILS 110.55 / hdg 156

(B) RW 17 length 8800 ft width 150 ft
ILS 111.75 / hdg 156

(C) RW 34 length 8800 ft width 150 ft
ILS 110.55 / hdg 336

(D) RW 35 length 8800 ft width 150 ft
ILS 111.75 / hdg 336

Location; KXNA
Day. 05 / Time. 20.53 Zulu
* Altimeter: 29.87
* Temperature: 18° c. 64.4°f.
* Wind from: 180° Speed 18 kn with Gusts up to 22 kn.
Dewpoint: 01° c.
Visibility: 10 Statute Miles.
Clouds: Broken 9000 ft.
Clouds: Overcast 12000 ft.

KXNA 052053Z 18018G22KT 10SM BKN090 OVC120 18/01 A2987 RMK AO2 PK WND 18027/2018 SLP108 T01780006 56032


Wind From 180°
Speed 18 kn.

 
 
jpsmedia worldairports.se 2019   terms of use